Weare, New Hampshire
Current Conditions -  °F | °C
As of 5:51 PM on Wednesday 22 Oct 2014 (Local Time) from KCON Reporting Station
Light Rain Light Rain  
Wind Chill: 41°   Ceiling: 1500
Heat Index: 47°   Visibility: 4mi
Dew Point: 45°   Wind: 14mph
Humidity: 93%   Direction: 20°NNE
Pressure: 29.99"   Gusts: 28mph
Location:  43.09°N, 71.73°W
Report Text: KCON 222151Z AUTO 02012G24KT 4SM -RA BR OVC015 08/07 A2999 RMK AO2 PK WND 03027/2115 RAE25B45 SLP158 P0005 T00830072
Loading
Personal Weather Stations






























Interactive Weather Map
Tropical Storm Tracking
New forecast layout! Learn more

10-Day Weather Forecast

Advertisements
Track Severe Weather on mobile